Time;durP1;ratioP1;P1;durP2;ratioP2;P2;SDS_P1;SDS_P2;PMS_P1;PMS_P2;Temp;Humidity;BMP_temperature;BMP_pressure;BME280_temperature;BME280_humidity;BME280_pressure;Samples;Min_cycle;Max_cycle;Signal;HPM_P1;HPM_P2
2022/05/09 00:00:23;;;;;;;0.03;0.03;;;17.40;99.90;;;;;;5052620;28;20363;-70
2022/05/09 00:02:49;;;;;;;0.00;0.00;;;17.50;99.90;;;;;;5054175;28;20021;-71
2022/05/09 00:05:18;;;;;;;0.00;0.00;;;17.60;99.90;;;;;;5052752;28;20025;-71
2022/05/09 00:07:45;;;;;;;0.00;0.00;;;17.70;99.90;;;;;;5053083;28;20495;-71
2022/05/09 00:10:14;;;;;;;0.00;0.00;;;17.80;99.90;;;;;;5054374;28;20096;-71
2022/05/09 00:12:40;;;;;;;0.00;0.00;;;17.50;99.90;;;;;;5053418;28;20112;-70
2022/05/09 00:15:08;;;;;;;9.20;6.38;;;17.40;99.90;;;;;;5052873;28;20047;-71
2022/05/09 00:17:34;;;;;;;0.57;0.57;;;17.50;99.90;;;;;;5053948;28;20082;-71
2022/05/09 00:20:00;;;;;;;0.00;0.00;;;17.80;99.90;;;;;;5053708;28;20473;-70
2022/05/09 00:22:26;;;;;;;0.10;0.10;;;17.90;99.90;;;;;;5052321;28;20024;-69
2022/05/09 00:24:52;;;;;;;2.30;2.20;;;18.10;99.90;;;;;;5053508;28;20021;-70
2022/05/09 00:27:18;;;;;;;16.42;12.77;;;18.30;99.90;;;;;;5052288;28;20105;-70
2022/05/09 00:29:44;;;;;;;17.08;11.00;;;18.60;99.90;;;;;;5052349;28;20017;-70
2022/05/09 00:32:14;;;;;;;0.13;0.13;;;18.80;99.90;;;;;;5053583;28;20032;-70
2022/05/09 00:34:40;;;;;;;0.00;0.00;;;18.80;99.90;;;;;;5050884;28;20024;-71
2022/05/09 00:37:06;;;;;;;0.10;0.10;;;18.70;99.90;;;;;;5053760;28;20464;-70
2022/05/09 00:39:35;;;;;;;0.00;0.00;;;18.90;99.90;;;;;;5053451;28;20017;-70
2022/05/09 00:42:12;;;;;;;0.00;0.00;;;19.30;99.90;;;;;;5049659;28;20025;-70
2022/05/09 00:44:39;;;;;;;0.00;0.00;;;19.60;99.90;;;;;;5051934;28;20020;-70
2022/05/09 00:47:05;;;;;;;3.42;3.33;;;19.50;99.90;;;;;;5051536;28;20029;-70
2022/05/09 00:49:40;;;;;;;0.00;0.00;;;20.10;99.90;;;;;;5051710;28;20068;-70
2022/05/09 00:52:22;;;;;;;0.40;0.40;;;21.00;99.90;;;;;;5050845;28;20102;-70
2022/05/09 00:54:54;;;;;;;0.00;0.00;;;21.90;99.90;;;;;;5049654;28;20094;-70
2022/05/09 00:57:22;;;;;;;0.00;0.00;;;22.40;99.90;;;;;;5049150;28;20044;-70
2022/05/09 00:59:52;;;;;;;0.20;0.20;;;22.10;99.90;;;;;;5051935;28;20108;-70
2022/05/09 01:02:20;;;;;;;0.45;0.45;;;22.20;99.90;;;;;;5052868;28;20017;-70
2022/05/09 01:04:58;;;;;;;1.27;1.27;;;23.20;99.90;;;;;;5046566;28;20124;-70
2022/05/09 01:07:24;;;;;;;0.13;0.13;;;23.40;99.90;;;;;;5045720;28;20016;-70
2022/05/09 01:09:51;;;;;;;11.52;7.15;;;23.10;99.90;;;;;;5050754;28;20037;-69
2022/05/09 01:12:29;;;;;;;0.35;0.35;;;21.80;99.90;;;;;;5050968;28;20052;-70
2022/05/09 01:14:59;;;;;;;0.00;0.00;;;21.90;99.90;;;;;;5052148;28;20048;-70
2022/05/09 01:17:26;;;;;;;0.32;0.32;;;22.60;99.90;;;;;;5050452;28;20021;-70
2022/05/09 01:19:55;;;;;;;0.25;0.25;;;23.00;99.90;;;;;;5051566;28;20545;-70
2022/05/09 01:22:34;;;;;;;0.32;0.32;;;23.30;99.90;;;;;;5044815;28;20025;-69
2022/05/09 01:25:03;;;;;;;28.42;2.28;;;22.50;99.90;;;;;;5046871;28;20040;-69
2022/05/09 01:27:35;;;;;;;15.38;14.05;;;23.00;99.90;;;;;;5046640;28;20082;-70
2022/05/09 01:30:19;;;;;;;1.08;1.08;;;23.50;99.90;;;;;;5051731;28;20032;-69
2022/05/09 01:33:03;;;;;;;0.60;0.60;;;22.80;99.90;;;;;;5052567;28;20021;-70
2022/05/09 01:35:57;;;;;;;6.60;6.25;;;23.30;99.90;;;;;;5049393;28;20049;-69
2022/05/09 01:38:46;;;;;;;0.22;0.22;;;24.20;99.90;;;;;;5045586;28;20025;-69
2022/05/09 01:41:13;;;;;;;0.00;0.00;;;24.70;99.90;;;;;;5044028;28;20025;-69
2022/05/09 01:43:45;;;;;;;0.00;0.00;;;25.10;99.90;;;;;;5044948;28;20021;-69
2022/05/09 01:46:18;;;;;;;0.00;0.00;;;25.40;99.90;;;;;;5042789;28;20017;-69
2022/05/09 01:49:29;;;;;;;0.30;0.28;;;25.70;98.20;;;;;;5035098;28;20026;-70
2022/05/09 01:51:32;;;;;;;0.95;0.80;;;25.80;93.50;;;;;;5025369;28;20034;-70
2022/05/09 01:53:58;;;;;;;1.75;1.65;;;26.00;90.80;;;;;;5031059;28;20112;-70
2022/05/09 01:56:33;;;;;;;7.07;6.72;;;26.40;88.20;;;;;;5032598;28;20040;-69
2022/05/09 01:59:00;;;;;;;1.20;1.20;;;26.40;84.10;;;;;;5032517;28;20021;-69
2022/05/09 02:01:34;;;;;;;0.60;0.60;;;26.20;84.20;;;;;;5034321;28;20104;-69
2022/05/09 02:04:00;;;;;;;0.00;0.00;;;26.60;80.60;;;;;;5043661;28;20029;-70
2022/05/09 02:06:26;;;;;;;0.35;0.35;;;27.40;77.30;;;;;;5033658;28;20030;-69
2022/05/09 02:08:52;;;;;;;0.75;0.75;;;28.10;72.00;;;;;;5048075;28;20033;-69
2022/05/09 02:11:18;;;;;;;11.07;9.02;;;29.00;70.50;;;;;;5044804;28;20053;-69
2022/05/09 02:13:45;;;;;;;0.00;0.00;;;29.70;64.20;;;;;;5032149;28;20581;-70
2022/05/09 02:16:11;;;;;;;0.30;0.30;;;30.30;60.60;;;;;;5032345;28;20021;-69
2022/05/09 02:18:38;;;;;;;0.52;0.52;;;30.60;58.10;;;;;;5032212;28;20037;-69
2022/05/09 02:21:05;;;;;;;0.00;0.00;;;30.90;56.10;;;;;;5041363;28;20021;-70
2022/05/09 02:23:33;;;;;;;2.78;2.17;;;30.70;55.70;;;;;;5038305;28;20025;-70
2022/05/09 02:25:59;;;;;;;1.27;1.20;;;30.70;55.40;;;;;;5037967;28;20025;-71
2022/05/09 02:28:25;;;;;;;23.05;20.63;;;30.50;55.10;;;;;;5042264;28;20022;-70
2022/05/09 02:30:51;;;;;;;0.70;0.65;;;30.30;55.60;;;;;;5046080;28;20036;-69
2022/05/09 02:33:18;;;;;;;1.20;1.20;;;30.40;55.00;;;;;;5049245;28;20025;-69
2022/05/09 02:35:44;;;;;;;0.43;0.43;;;30.50;55.00;;;;;;5037608;28;20080;-69
2022/05/09 02:38:11;;;;;;;1.75;1.65;;;30.20;56.40;;;;;;5038749;28;20078;-69
2022/05/09 02:40:37;;;;;;;5.50;2.45;;;30.00;56.80;;;;;;5054117;28;20075;-69
2022/05/09 02:43:03;;;;;;;8.20;6.75;;;30.30;56.20;;;;;;5055919;28;20033;-69
2022/05/09 02:45:30;;;;;;;4.97;4.68;;;30.80;55.20;;;;;;5055888;28;20021;-69
2022/05/09 02:47:57;;;;;;;0.35;0.35;;;31.10;54.50;;;;;;5047000;28;20025;-70
2022/05/09 02:50:30;;;;;;;1.02;1.02;;;31.20;53.50;;;;;;5036799;28;20029;-70
2022/05/09 02:52:56;;;;;;;6.57;5.65;;;31.00;53.50;;;;;;5044760;28;20036;-70
2022/05/09 02:55:23;;;;;;;5.32;4.85;;;30.90;54.00;;;;;;5045929;28;20063;-69
2022/05/09 02:57:50;;;;;;;0.10;0.10;;;30.90;54.00;;;;;;5049936;28;20040;-70
2022/05/09 03:00:29;;;;;;;10.30;7.13;;;30.40;54.60;;;;;;5047745;28;20021;-70
2022/05/09 03:09:04;;;;;;;10.48;0.70;;;31.10;53.90;;;;;;5044624;28;20036;-68
2022/05/09 03:11:30;;;;;;;3.22;1.17;;;30.40;53.80;;;;;;5050116;28;20021;-69
2022/05/09 03:13:56;;;;;;;0.80;0.80;;;29.10;56.70;;;;;;5053838;28;20029;-69
2022/05/09 03:16:23;;;;;;;5.35;5.05;;;28.20;59.20;;;;;;5051662;28;20024;-69
2022/05/09 03:18:51;;;;;;;7.75;7.28;;;29.20;57.40;;;;;;5048706;28;20026;-68
2022/05/09 03:21:18;;;;;;;0.28;0.28;;;30.00;56.90;;;;;;5052295;28;20026;-73
2022/05/09 03:23:45;;;;;;;2.40;2.30;;;30.60;54.80;;;;;;5068878;28;20021;-71
2022/05/09 03:26:11;;;;;;;0.00;0.00;;;30.60;54.10;;;;;;5056180;28;20028;-73
2022/05/09 03:28:37;;;;;;;0.00;0.00;;;30.30;54.30;;;;;;5054264;28;20025;-72
2022/05/09 03:31:13;;;;;;;0.90;0.90;;;29.90;54.60;;;;;;5046727;28;20049;-71
2022/05/09 03:33:39;;;;;;;4.13;3.92;;;29.00;56.40;;;;;;5060697;28;20078;-72
2022/05/09 03:36:06;;;;;;;0.00;0.00;;;28.60;57.90;;;;;;5052791;28;20481;-72
2022/05/09 03:38:32;;;;;;;0.30;0.30;;;28.20;59.10;;;;;;5042431;28;20025;-73
2022/05/09 03:40:58;;;;;;;0.63;0.63;;;27.70;59.80;;;;;;5054430;28;20115;-73
2022/05/09 03:43:24;;;;;;;2.90;2.00;;;26.60;63.00;;;;;;5046391;28;20043;-70
2022/05/09 03:45:54;;;;;;;0.60;0.25;;;26.20;65.80;;;;;;5051037;28;20473;-70
2022/05/09 03:48:20;;;;;;;16.13;7.80;;;26.10;64.80;;;;;;5052798;28;20046;-70
2022/05/09 03:50:47;;;;;;;0.00;0.00;;;26.40;65.00;;;;;;5049332;28;20033;-71
2022/05/09 03:53:13;;;;;;;0.32;0.32;;;26.40;65.50;;;;;;5054576;28;20025;-71
2022/05/09 03:55:39;;;;;;;0.00;0.00;;;26.60;64.80;;;;;;5053446;28;20504;-70
2022/05/09 03:58:05;;;;;;;0.00;0.00;;;26.50;66.30;;;;;;5055429;28;20032;-73
2022/05/09 04:00:33;;;;;;;0.00;0.00;;;26.50;66.10;;;;;;5051647;28;20524;-71
2022/05/09 04:03:03;;;;;;;0.75;0.70;;;26.40;64.90;;;;;;5051812;28;20086;-72
2022/05/09 04:05:30;;;;;;;2.47;2.28;;;25.90;66.60;;;;;;5052394;28;20496;-71
2022/05/09 04:07:58;;;;;;;1.08;1.08;;;25.40;70.90;;;;;;5048572;28;20035;-70
2022/05/09 04:10:29;;;;;;;0.35;0.35;;;25.40;72.00;;;;;;5045902;28;20032;-70
2022/05/09 04:12:56;;;;;;;0.45;0.10;;;25.60;71.70;;;;;;5051038;28;20025;-70
2022/05/09 04:18:07;;;;;;;2.72;1.08;;;26.00;70.10;;;;;;5050997;28;20095;-71
2022/05/09 04:20:35;;;;;;;5.63;2.53;;;26.40;68.90;;;;;;5053094;28;20485;-69
2022/05/09 04:23:01;;;;;;;0.00;0.00;;;25.60;71.40;;;;;;5053111;28;20020;-71
2022/05/09 04:25:31;;;;;;;0.00;0.00;;;25.30;74.70;;;;;;5051519;28;20389;-71
2022/05/09 04:27:59;;;;;;;0.28;0.28;;;25.40;76.30;;;;;;5053042;28;20037;-72
2022/05/09 04:30:25;;;;;;;0.17;0.17;;;25.30;75.90;;;;;;5050458;28;20087;-72
2022/05/09 04:32:51;;;;;;;0.00;0.00;;;25.20;77.60;;;;;;5050406;28;20024;-72
2022/05/09 04:35:19;;;;;;;3.05;1.80;;;25.40;78.90;;;;;;5053097;28;20027;-71
2022/05/09 04:37:47;;;;;;;2.88;2.40;;;25.20;85.10;;;;;;5050716;28;20017;-71
2022/05/09 04:40:19;;;;;;;6.75;1.60;;;25.30;92.30;;;;;;5050429;28;20033;-71
2022/05/09 04:42:45;;;;;;;3.17;2.03;;;24.90;98.40;;;;;;5051189;28;20376;-71
2022/05/09 04:45:14;;;;;;;0.22;0.22;;;25.10;98.60;;;;;;5056360;28;20208;-69
2022/05/09 04:47:41;;;;;;;0.52;0.52;;;25.00;99.90;;;;;;5058661;28;20021;-69
2022/05/09 04:50:10;;;;;;;6.15;3.10;;;24.90;99.90;;;;;;5051975;28;20021;-71
2022/05/09 04:52:36;;;;;;;0.05;0.05;;;24.80;99.90;;;;;;5049155;28;20075;-70
2022/05/09 04:55:03;;;;;;;0.00;0.00;;;25.20;99.90;;;;;;5040003;28;20049;-71
2022/05/09 04:57:29;;;;;;;1.80;1.70;;;25.30;99.90;;;;;;5038980;28;20017;-71
2022/05/09 04:59:55;;;;;;;0.93;0.93;;;25.30;99.90;;;;;;5038331;28;20036;-70
2022/05/09 05:02:21;;;;;;;1.98;1.88;;;25.20;99.90;;;;;;5032672;28;20021;-71
2022/05/09 05:04:47;;;;;;;1.45;1.17;;;25.10;99.90;;;;;;5033070;28;20029;-71
2022/05/09 05:07:13;;;;;;;1.23;0.43;;;25.10;99.90;;;;;;5032074;28;20172;-70
2022/05/09 05:09:39;;;;;;;0.00;0.00;;;25.40;97.60;;;;;;5032074;28;20166;-72
2022/05/09 05:12:09;;;;;;;0.00;0.00;;;25.50;97.50;;;;;;5031823;28;20025;-70
2022/05/09 05:14:35;;;;;;;0.93;0.85;;;25.80;95.50;;;;;;5033034;28;20473;-72
2022/05/09 05:17:01;;;;;;;0.00;0.00;;;26.00;94.10;;;;;;5033426;28;20029;-71
2022/05/09 05:19:31;;;;;;;2.25;0.73;;;25.80;90.80;;;;;;5033006;28;20022;-73
2022/05/09 05:21:58;;;;;;;7.78;0.60;;;26.00;90.20;;;;;;5031582;28;20035;-71
2022/05/09 05:24:25;;;;;;;6.32;2.05;;;25.90;94.10;;;;;;5045152;28;20036;-72
2022/05/09 05:26:52;;;;;;;2.72;0.47;;;25.70;93.30;;;;;;5044424;28;20025;-72
2022/05/09 05:29:18;;;;;;;0.22;0.22;;;25.70;91.70;;;;;;5039399;28;20021;-72
2022/05/09 05:31:45;;;;;;;15.32;1.80;;;25.90;90.20;;;;;;5051788;28;20044;-72
2022/05/09 05:34:11;;;;;;;0.52;0.52;;;25.90;87.40;;;;;;5047877;28;20032;-72
2022/05/09 05:36:37;;;;;;;8.88;1.98;;;26.00;86.50;;;;;;5047838;28;20455;-72
2022/05/09 05:39:03;;;;;;;0.00;0.00;;;26.10;84.70;;;;;;5045470;28;20028;-73
2022/05/09 05:41:31;;;;;;;7.03;3.03;;;26.10;84.50;;;;;;5042552;28;20040;-72
2022/05/09 05:43:58;;;;;;;4.07;3.80;;;26.50;80.90;;;;;;5050086;28;20087;-73
2022/05/09 05:46:24;;;;;;;0.65;0.57;;;26.50;77.20;;;;;;5046216;28;20159;-70
2022/05/09 05:48:50;;;;;;;0.38;0.38;;;26.40;80.10;;;;;;5043238;28;20036;-72
2022/05/09 05:51:18;;;;;;;2.35;1.75;;;26.50;69.20;;;;;;5042419;28;20029;-72
2022/05/09 05:53:45;;;;;;;1.90;0.65;;;26.40;68.30;;;;;;5040887;28;20408;-70
2022/05/09 05:56:12;;;;;;;0.22;0.22;;;26.60;70.30;;;;;;5045582;28;20042;-71
2022/05/09 05:58:38;;;;;;;1.67;1.58;;;26.20;70.10;;;;;;5040755;28;20079;-71
2022/05/09 06:01:04;;;;;;;0.00;0.00;;;26.30;68.10;;;;;;5038398;28;20030;-71
2022/05/09 06:03:30;;;;;;;0.00;0.00;;;26.20;69.60;;;;;;5035312;28;20117;-71
2022/05/09 06:05:57;;;;;;;9.18;2.45;;;26.30;71.30;;;;;;5046987;28;20445;-71
2022/05/09 06:08:23;;;;;;;0.47;0.47;;;26.60;68.70;;;;;;5051982;28;20075;-71
2022/05/09 06:10:49;;;;;;;1.88;1.48;;;26.90;64.10;;;;;;5051994;28;20520;-70
2022/05/09 06:13:15;;;;;;;5.03;4.65;;;26.90;64.80;;;;;;5052024;28;20072;-71
2022/05/09 06:15:42;;;;;;;0.47;0.47;;;26.90;63.40;;;;;;5055654;28;20025;-73
2022/05/09 06:18:12;;;;;;;2.05;0.70;;;27.00;62.30;;;;;;5056441;28;20043;-70
2022/05/09 06:20:41;;;;;;;2.13;2.03;;;26.80;61.70;;;;;;5054491;28;20021;-70
2022/05/09 06:23:08;;;;;;;1.33;0.57;;;26.70;62.60;;;;;;5051805;28;20027;-70
2022/05/09 06:25:35;;;;;;;0.28;0.28;;;26.90;62.00;;;;;;5055064;28;20457;-70
2022/05/09 06:28:03;;;;;;;3.08;2.05;;;27.00;63.10;;;;;;5051452;28;20444;-70
2022/05/09 06:30:29;;;;;;;4.53;1.92;;;27.00;66.00;;;;;;5053689;28;20078;-71
2022/05/09 06:32:56;;;;;;;5.07;3.13;;;27.10;64.80;;;;;;5053610;28;20025;-70
2022/05/09 06:35:25;;;;;;;2.17;1.35;;;27.20;65.80;;;;;;5054138;28;20469;-71
2022/05/09 06:37:58;;;;;;;1.30;0.82;;;27.00;66.20;;;;;;5051372;28;20028;-71
2022/05/09 06:40:24;;;;;;;2.38;1.17;;;26.90;68.30;;;;;;5050932;28;20021;-69
2022/05/09 06:42:52;;;;;;;1.65;0.88;;;26.90;65.80;;;;;;5054128;28;20024;-70
2022/05/09 06:45:19;;;;;;;1.25;1.17;;;27.00;68.00;;;;;;5052683;28;20052;-69
2022/05/09 06:47:50;;;;;;;4.18;3.70;;;26.90;68.60;;;;;;5049087;28;20017;-70
2022/05/09 06:50:18;;;;;;;0.00;0.00;;;27.00;69.30;;;;;;5051198;28;20025;-71
2022/05/09 06:52:44;;;;;;;7.10;3.65;;;27.20;68.00;;;;;;5054509;28;20025;-71
2022/05/09 06:55:11;;;;;;;1.30;1.23;;;27.50;66.00;;;;;;5053957;28;20043;-70
2022/05/09 06:57:42;;;;;;;0.00;0.00;;;27.40;66.50;;;;;;5045017;28;20144;-70
2022/05/09 07:00:12;;;;;;;2.08;1.45;;;27.20;67.70;;;;;;5051186;28;20048;-71
2022/05/09 07:02:38;;;;;;;0.20;0.20;;;27.50;68.00;;;;;;5051301;28;20017;-70
2022/05/09 07:05:06;;;;;;;4.22;2.33;;;27.10;68.70;;;;;;5048777;28;20327;-70
2022/05/09 07:07:32;;;;;;;1.13;1.13;;;27.50;68.70;;;;;;5053249;28;20025;-71
2022/05/09 07:09:58;;;;;;;17.00;4.53;;;27.30;68.40;;;;;;5052404;28;20025;-70
2022/05/09 07:12:24;;;;;;;0.10;0.05;;;27.60;67.60;;;;;;5044286;28;20102;-71
2022/05/09 07:14:51;;;;;;;2.35;2.22;;;27.30;65.80;;;;;;5050107;28;20032;-71
2022/05/09 07:17:17;;;;;;;1.58;1.23;;;27.50;65.60;;;;;;5050768;28;20017;-71
2022/05/09 07:19:44;;;;;;;4.97;4.68;;;27.80;64.00;;;;;;5049748;28;20721;-70
2022/05/09 07:22:11;;;;;;;0.17;0.15;;;27.50;64.70;;;;;;5051168;28;20029;-70
2022/05/09 07:24:37;;;;;;;3.60;2.28;;;27.40;66.80;;;;;;5049464;28;20044;-70
2022/05/09 07:27:03;;;;;;;1.58;1.48;;;27.60;67.70;;;;;;5049794;28;20063;-70
2022/05/09 07:29:29;;;;;;;5.63;5.25;;;27.30;68.50;;;;;;5054256;28;20028;-70
2022/05/09 07:31:56;;;;;;;1.75;1.75;;;27.50;70.60;;;;;;5054697;28;20044;-70
2022/05/09 07:34:22;;;;;;;5.97;2.42;;;27.50;71.30;;;;;;5043931;28;20078;-71
2022/05/09 07:36:48;;;;;;;0.80;0.80;;;27.70;70.40;;;;;;5052142;28;20017;-71
2022/05/09 07:39:14;;;;;;;0.00;0.00;;;27.60;68.50;;;;;;5051031;28;20029;-71
2022/05/09 07:41:40;;;;;;;12.50;3.30;;;27.70;68.90;;;;;;5051637;28;20021;-70
2022/05/09 07:44:06;;;;;;;1.10;0.75;;;27.80;68.30;;;;;;5050049;28;20025;-70
2022/05/09 07:46:33;;;;;;;3.05;1.90;;;27.70;68.10;;;;;;5039827;28;20040;-71
2022/05/09 07:48:59;;;;;;;24.67;7.22;;;27.40;66.90;;;;;;5044694;28;20029;-70
2022/05/09 07:51:25;;;;;;;2.65;1.38;;;27.80;66.40;;;;;;5053272;28;20103;-70
2022/05/09 07:53:51;;;;;;;7.63;2.55;;;27.70;65.30;;;;;;5041686;28;20375;-71
2022/05/09 07:56:17;;;;;;;0.65;0.28;;;27.60;65.80;;;;;;5045027;28;20489;-72
2022/05/09 07:58:43;;;;;;;0.75;0.43;;;27.70;65.50;;;;;;5044502;28;20033;-72
2022/05/09 08:01:09;;;;;;;0.10;0.10;;;27.60;65.70;;;;;;5036954;28;20416;-72
2022/05/09 08:03:39;;;;;;;0.00;0.00;;;27.90;67.00;;;;;;5043421;28;20025;-71
2022/05/09 08:06:06;;;;;;;0.15;0.03;;;28.40;65.20;;;;;;5044050;28;20060;-72
2022/05/09 08:08:36;;;;;;;3.13;1.40;;;28.30;64.40;;;;;;5043036;28;20037;-72
2022/05/09 08:11:03;;;;;;;0.80;0.28;;;28.10;65.10;;;;;;5051357;28;20060;-71
2022/05/09 08:13:33;;;;;;;0.13;0.13;;;28.20;64.10;;;;;;5043847;28;20473;-71
2022/05/09 08:15:59;;;;;;;1.38;0.52;;;28.50;65.10;;;;;;5036164;28;20061;-71
2022/05/09 08:18:26;;;;;;;0.15;0.15;;;28.50;63.30;;;;;;5042626;28;20028;-70
2022/05/09 08:20:55;;;;;;;66.55;24.52;;;28.90;60.50;;;;;;5048575;28;20022;-70
2022/05/09 08:23:22;;;;;;;0.38;0.38;;;28.80;61.50;;;;;;5043902;28;20025;-71
2022/05/09 08:25:50;;;;;;;0.00;0.00;;;29.10;59.00;;;;;;5040310;28;20634;-70
2022/05/09 08:28:18;;;;;;;0.00;0.00;;;29.10;59.70;;;;;;5044858;28;20032;-71
2022/05/09 08:30:44;;;;;;;0.00;0.00;;;29.30;58.30;;;;;;5046269;28;20073;-70
2022/05/09 08:33:17;;;;;;;0.93;0.93;;;29.30;58.20;;;;;;5053364;28;20057;-70
2022/05/09 08:35:48;;;;;;;0.00;0.00;;;28.90;58.50;;;;;;5045705;28;20029;-70
2022/05/09 08:38:14;;;;;;;0.40;0.40;;;28.60;58.40;;;;;;5048325;28;20104;-70
2022/05/09 08:41:07;;;;;;;13.05;0.45;;;28.60;59.00;;;;;;5044320;28;20445;-71
2022/05/09 08:43:51;;;;;;;0.45;0.20;;;28.90;58.70;;;;;;5033739;28;20039;-70
2022/05/09 08:46:58;;;;;;;0.17;0.10;;;28.90;57.40;;;;;;5037879;28;20021;-71
2022/05/09 08:49:47;;;;;;;11.80;11.00;;;29.00;58.50;;;;;;5043453;28;20052;-70
2022/05/09 08:52:26;;;;;;;0.55;0.55;;;29.20;58.60;;;;;;5038177;28;20118;-71
2022/05/09 08:54:54;;;;;;;0.00;0.00;;;29.50;58.50;;;;;;5070120;28;20037;-72
2022/05/09 08:57:34;;;;;;;0.38;0.30;;;29.60;58.20;;;;;;5048082;28;20021;-72
2022/05/09 09:00:09;;;;;;;0.00;0.00;;;29.60;57.20;;;;;;5051383;28;20496;-71
2022/05/09 09:02:53;;;;;;;0.00;0.00;;;29.80;55.70;;;;;;5047200;28;20029;-72
2022/05/09 09:05:25;;;;;;;1.30;1.20;;;29.90;55.40;;;;;;5037944;28;20036;-71
2022/05/09 09:08:29;;;;;;;0.00;0.00;;;29.40;56.10;;;;;;5041583;28;20025;-71
2022/05/09 09:11:08;;;;;;;0.00;0.00;;;29.30;56.80;;;;;;5038807;28;20052;-71
2022/05/09 09:13:59;;;;;;;1.35;0.90;;;29.10;56.50;;;;;;5047054;28;20025;-72
2022/05/09 09:16:42;;;;;;;6.97;3.53;;;29.10;56.10;;;;;;5048757;28;20061;-70
2022/05/09 09:19:38;;;;;;;2.08;0.70;;;29.00;57.40;;;;;;5050366;28;20124;-70
2022/05/09 09:22:24;;;;;;;0.28;0.00;;;29.00;56.90;;;;;;5042215;28;20039;-70
2022/05/09 09:25:28;;;;;;;0.10;0.10;;;29.00;58.10;;;;;;5043241;28;20024;-69
2022/05/09 09:28:00;;;;;;;2.45;2.30;;;29.20;57.90;;;;;;5039186;28;20561;-70
2022/05/09 09:30:27;;;;;;;0.00;0.00;;;29.30;57.10;;;;;;5043232;28;20017;-70
2022/05/09 09:33:06;;;;;;;0.38;0.38;;;29.50;56.60;;;;;;5048013;28;20497;-71
2022/05/09 09:35:32;;;;;;;0.50;0.50;;;29.30;56.60;;;;;;5046971;28;20469;-72
2022/05/09 09:38:28;;;;;;;0.73;0.73;;;29.20;56.80;;;;;;5043531;28;20037;-72
2022/05/09 09:40:54;;;;;;;0.00;0.00;;;29.30;56.30;;;;;;5046892;28;20069;-70
2022/05/09 09:43:20;;;;;;;0.10;0.10;;;29.00;54.60;;;;;;5040040;28;20466;-70
2022/05/09 09:46:01;;;;;;;0.03;0.03;;;29.10;53.50;;;;;;5043709;28;20025;-69
2022/05/09 09:48:27;;;;;;;0.00;0.00;;;29.00;54.30;;;;;;5042877;28;20032;-70
2022/05/09 09:50:56;;;;;;;0.00;0.00;;;28.90;57.20;;;;;;5037545;28;20028;-71
2022/05/09 09:53:47;;;;;;;0.10;0.10;;;29.00;54.70;;;;;;5039725;28;20037;-71
2022/05/09 09:56:22;;;;;;;0.00;0.00;;;29.10;55.00;;;;;;5043459;28;20045;-70
2022/05/09 09:59:15;;;;;;;1.45;0.73;;;29.10;55.70;;;;;;5042919;28;20598;-71
2022/05/09 10:01:41;;;;;;;2.10;0.82;;;28.90;54.80;;;;;;5046866;28;20462;-73
2022/05/09 10:04:13;;;;;;;0.98;0.98;;;28.70;52.20;;;;;;5051933;28;20024;-72
2022/05/09 10:07:07;;;;;;;1.92;1.85;;;28.50;53.00;;;;;;5051331;28;20056;-72
2022/05/09 10:09:39;;;;;;;2.53;0.93;;;28.60;54.70;;;;;;5045492;28;20045;-71
2022/05/09 10:12:22;;;;;;;4.32;2.20;;;28.60;55.70;;;;;;5045365;28;20033;-71
2022/05/09 10:14:50;;;;;;;0.20;0.05;;;28.30;57.40;;;;;;5051764;28;20319;-71
2022/05/09 10:17:36;;;;;;;0.00;0.00;;;28.30;57.90;;;;;;5057883;28;20029;-71
2022/05/09 10:20:39;;;;;;;0.00;0.00;;;28.30;57.20;;;;;;5056021;28;20120;-71
2022/05/09 10:26:27;;;;;;;0.52;0.10;;;28.50;56.60;;;;;;5049216;28;20118;-71
2022/05/09 10:29:00;;;;;;;1.27;1.20;;;28.30;58.30;;;;;;5048913;28;20087;-71
2022/05/09 10:31:31;;;;;;;0.20;0.20;;;28.30;59.60;;;;;;5050150;28;20025;-70
2022/05/09 10:34:16;;;;;;;12.43;1.67;;;28.10;61.00;;;;;;5047299;28;20025;-71
2022/05/09 10:36:50;;;;;;;22.13;9.52;;;28.10;60.70;;;;;;5045423;28;20426;-70
2022/05/09 10:39:39;;;;;;;0.00;0.00;;;28.10;61.10;;;;;;5046267;28;20021;-70
2022/05/09 10:42:09;;;;;;;1.17;1.17;;;28.20;61.00;;;;;;5040320;28;20047;-70
2022/05/09 10:45:20;;;;;;;6.07;3.08;;;28.20;61.90;;;;;;5037693;28;20060;-71
2022/05/09 10:48:11;;;;;;;0.10;0.10;;;28.30;62.00;;;;;;5044020;28;20099;-70
2022/05/09 10:51:01;;;;;;;0.00;0.00;;;28.50;62.40;;;;;;5047028;28;20420;-71
2022/05/09 10:53:53;;;;;;;0.80;0.30;;;28.70;61.70;;;;;;5041065;28;20064;-71
2022/05/09 10:56:31;;;;;;;1.65;0.60;;;28.40;60.30;;;;;;5039770;28;20516;-71
2022/05/09 10:59:04;;;;;;;0.00;0.00;;;28.20;60.30;;;;;;5049484;28;20147;-71
2022/05/09 11:01:50;;;;;;;0.00;0.00;;;28.40;59.80;;;;;;5043276;28;20017;-71
2022/05/09 11:04:17;;;;;;;0.17;0.17;;;28.10;61.10;;;;;;5041447;28;20025;-68
2022/05/09 11:06:53;;;;;;;0.00;0.00;;;28.20;60.10;;;;;;5036431;28;20103;-70
2022/05/09 11:09:24;;;;;;;2.63;2.33;;;28.50;59.60;;;;;;5047878;28;20028;-69
2022/05/09 11:12:01;;;;;;;10.43;1.35;;;28.60;59.30;;;;;;5045949;28;20029;-68
2022/05/09 11:14:49;;;;;;;0.00;0.00;;;28.60;58.70;;;;;;5036959;28;20033;-68
2022/05/09 11:17:26;;;;;;;0.00;0.00;;;28.30;59.60;;;;;;5052177;28;20055;-71
2022/05/09 11:20:12;;;;;;;3.33;0.65;;;28.20;58.90;;;;;;5051103;28;20044;-69
2022/05/09 11:22:58;;;;;;;1.20;0.73;;;28.20;56.50;;;;;;5050801;28;20052;-68
2022/05/09 11:26:01;;;;;;;0.05;0.05;;;27.90;56.70;;;;;;5049088;28;20045;-69
2022/05/09 11:28:58;;;;;;;0.00;0.00;;;27.80;58.50;;;;;;5053079;28;20408;-69
2022/05/09 11:31:48;;;;;;;0.00;0.00;;;27.90;59.00;;;;;;5046148;28;20033;-69
2022/05/09 11:34:20;;;;;;;0.43;0.10;;;28.00;59.40;;;;;;5038670;28;20068;-68
2022/05/09 11:37:04;;;;;;;0.60;0.60;;;27.70;59.80;;;;;;5044523;28;20017;-69
2022/05/09 11:39:36;;;;;;;0.00;0.00;;;27.70;60.90;;;;;;5034827;28;20028;-67
2022/05/09 11:43:27;;;;;;;0.20;0.20;;;27.70;60.60;;;;;;5042908;28;20402;-68
2022/05/09 11:45:21;;;;;;;1.48;0.60;;;27.60;61.00;;;;;;5039978;28;20055;-69
2022/05/09 11:48:00;;;;;;;0.22;0.22;;;27.70;60.60;;;;;;5043310;28;20044;-69
2022/05/09 11:50:58;;;;;;;0.00;0.00;;;27.80;60.20;;;;;;5050652;28;20025;-69
2022/05/09 11:53:29;;;;;;;3.53;1.45;;;28.00;59.60;;;;;;5046148;28;20032;-70
2022/05/09 11:55:55;;;;;;;0.10;0.10;;;28.00;58.70;;;;;;5048158;28;20107;-70
2022/05/09 11:58:22;;;;;;;0.00;0.00;;;27.80;58.50;;;;;;5048459;28;20021;-70
2022/05/09 12:00:50;;;;;;;0.00;0.00;;;27.80;57.70;;;;;;5050132;28;20033;-70
2022/05/09 12:03:38;;;;;;;0.00;0.00;;;27.90;57.40;;;;;;5045480;28;20485;-69
2022/05/09 12:06:06;;;;;;;0.95;0.85;;;27.90;56.30;;;;;;5048055;28;20041;-69
2022/05/09 12:08:47;;;;;;;0.00;0.00;;;27.80;54.40;;;;;;5050978;28;20055;-69
2022/05/09 12:11:30;;;;;;;0.00;0.00;;;27.70;54.60;;;;;;5051815;28;20112;-70
2022/05/09 12:13:59;;;;;;;0.00;0.00;;;27.50;53.60;;;;;;5049553;28;20032;-69
2022/05/09 12:16:36;;;;;;;0.55;0.30;;;27.50;53.10;;;;;;5052716;28;20036;-68
2022/05/09 12:19:24;;;;;;;0.00;0.00;;;27.40;53.00;;;;;;5048470;28;20029;-69
2022/05/09 12:22:19;;;;;;;0.00;0.00;;;27.40;52.80;;;;;;5047238;28;20025;-70
2022/05/09 12:24:45;;;;;;;0.28;0.28;;;27.40;53.50;;;;;;5043829;28;20429;-70
2022/05/09 12:27:43;;;;;;;0.00;0.00;;;27.40;53.40;;;;;;5048338;28;20474;-70
2022/05/09 12:30:46;;;;;;;0.00;0.00;;;27.30;53.70;;;;;;5048850;28;20037;-70
2022/05/09 12:33:33;;;;;;;0.10;0.10;;;27.30;54.30;;;;;;5041786;28;20025;-69
2022/05/09 12:36:23;;;;;;;0.00;0.00;;;27.30;54.20;;;;;;5043551;28;20029;-69
2022/05/09 12:38:54;;;;;;;0.00;0.00;;;27.40;54.90;;;;;;5047995;28;20025;-69
2022/05/09 12:41:30;;;;;;;0.00;0.00;;;27.60;54.00;;;;;;5034181;28;20147;-68
2022/05/09 12:44:11;;;;;;;0.00;0.00;;;27.50;55.00;;;;;;5045728;28;20444;-69
2022/05/09 12:46:46;;;;;;;0.00;0.00;;;27.50;54.00;;;;;;5045320;28;20380;-69
2022/05/09 12:49:17;;;;;;;0.00;0.00;;;27.60;54.00;;;;;;5036771;28;20087;-70
2022/05/09 12:51:47;;;;;;;0.00;0.00;;;27.70;53.70;;;;;;5035508;28;20535;-70
2022/05/09 12:54:15;;;;;;;0.00;0.00;;;27.50;54.50;;;;;;5043021;28;20028;-70
2022/05/09 12:56:59;;;;;;;0.00;0.00;;;27.50;54.30;;;;;;5053511;28;20029;-70
2022/05/09 12:59:27;;;;;;;0.00;0.00;;;27.20;55.00;;;;;;5052268;28;20021;-70
2022/05/09 13:01:58;;;;;;;0.70;0.57;;;27.20;54.60;;;;;;5045579;28;20021;-70
2022/05/09 13:04:32;;;;;;;0.00;0.00;;;27.10;54.10;;;;;;5032233;28;20041;-69
2022/05/09 13:07:05;;;;;;;0.00;0.00;;;27.20;53.90;;;;;;5044175;28;20029;-69
2022/05/09 13:09:35;;;;;;;0.00;0.00;;;27.00;54.30;;;;;;5053294;28;20024;-69
2022/05/09 13:12:13;;;;;;;0.00;0.00;;;26.90;54.70;;;;;;5051998;28;20083;-69
2022/05/09 13:14:46;;;;;;;0.00;0.00;;;26.60;54.70;;;;;;5047118;28;20481;-70
2022/05/09 13:17:26;;;;;;;0.00;0.00;;;26.60;54.70;;;;;;5051808;28;20328;-70
2022/05/09 13:19:53;;;;;;;0.00;0.00;;;26.80;55.00;;;;;;5052899;28;20504;-70
2022/05/09 13:22:28;;;;;;;0.00;0.00;;;26.60;54.70;;;;;;5051794;28;20531;-69